Time;durP1;ratioP1;P1;durP2;ratioP2;P2;SDS_P1;SDS_P2;PMS_P1;PMS_P2;Temp;Humidity;BMP_temperature;BMP_pressure;BME280_temperature;BME280_humidity;BME280_pressure;Samples;Min_cycle;Max_cycle;Signal;HPM_P1;HPM_P2
2023/04/28 00:02:24;;;;;;;20.90;11.13;;;7.80;99.90;;;;;;5033922;28;20048;-58
2023/04/28 00:04:53;;;;;;;22.65;11.32;;;7.80;99.90;;;;;;5048591;28;20048;-57
2023/04/28 00:07:24;;;;;;;21.70;12.38;;;7.80;99.90;;;;;;5048053;28;20184;-59
2023/04/28 00:09:51;;;;;;;22.70;13.02;;;7.80;99.90;;;;;;5042154;28;20045;-58
2023/04/28 00:12:19;;;;;;;21.90;11.98;;;7.80;99.90;;;;;;5025087;28;20048;-60
2023/04/28 00:14:47;;;;;;;21.90;12.38;;;7.80;99.90;;;;;;5042996;28;20046;-58
2023/04/28 00:17:14;;;;;;;23.15;12.38;;;7.90;99.90;;;;;;5029661;28;20041;-58
2023/04/28 00:19:42;;;;;;;22.55;12.38;;;7.90;99.90;;;;;;5041632;28;20041;-57
2023/04/28 00:22:10;;;;;;;21.80;11.00;;;7.90;99.90;;;;;;5045735;28;20037;-58
2023/04/28 00:24:37;;;;;;;22.02;11.50;;;7.90;99.90;;;;;;5043159;28;20048;-58
2023/04/28 00:27:05;;;;;;;22.67;11.65;;;7.90;99.90;;;;;;5038411;28;20052;-58
2023/04/28 00:29:33;;;;;;;20.48;10.75;;;7.90;99.90;;;;;;5025652;28;20052;-57
2023/04/28 00:32:01;;;;;;;20.20;10.88;;;7.90;99.90;;;;;;5018148;28;20431;-57
2023/04/28 00:34:32;;;;;;;20.02;10.50;;;7.90;99.90;;;;;;5025794;28;20041;-57
2023/04/28 00:37:00;;;;;;;20.38;10.68;;;7.90;99.90;;;;;;5028998;28;20048;-57
2023/04/28 00:39:27;;;;;;;17.42;10.27;;;7.90;99.90;;;;;;5027098;28;20049;-58
2023/04/28 00:41:56;;;;;;;19.17;10.60;;;7.90;99.90;;;;;;5045005;28;20053;-58
2023/04/28 00:44:24;;;;;;;18.40;11.35;;;7.90;99.90;;;;;;5029342;28;20061;-58
2023/04/28 00:46:56;;;;;;;24.42;12.20;;;7.90;99.90;;;;;;5030108;28;20045;-57
2023/04/28 00:49:24;;;;;;;21.67;10.98;;;8.00;99.90;;;;;;5019945;28;20045;-58
2023/04/28 00:51:52;;;;;;;19.60;11.32;;;7.90;99.90;;;;;;5044580;28;20060;-59
2023/04/28 00:54:20;;;;;;;21.25;12.23;;;7.90;99.90;;;;;;5043604;28;20061;-59
2023/04/28 00:56:48;;;;;;;19.65;10.68;;;8.00;99.90;;;;;;5035797;28;20055;-59
2023/04/28 00:59:16;;;;;;;19.58;11.40;;;8.00;99.90;;;;;;5017841;28;20048;-61
2023/04/28 01:01:43;;;;;;;20.38;11.05;;;8.00;99.90;;;;;;5042813;28;20056;-57
2023/04/28 01:04:16;;;;;;;20.48;11.27;;;8.00;99.90;;;;;;5023178;28;20411;-57
2023/04/28 01:06:46;;;;;;;17.80;10.07;;;8.00;99.90;;;;;;5043498;28;20041;-58
2023/04/28 01:09:13;;;;;;;18.67;10.88;;;8.00;99.90;;;;;;5043817;28;20044;-57
2023/04/28 01:11:41;;;;;;;20.42;12.13;;;8.00;99.90;;;;;;5021688;28;20052;-58
2023/04/28 01:14:18;;;;;;;17.55;9.70;;;8.00;99.90;;;;;;5039824;28;20075;-58
2023/04/28 01:16:47;;;;;;;17.88;10.18;;;8.00;99.90;;;;;;5029994;28;20052;-58
2023/04/28 01:19:22;;;;;;;17.83;10.05;;;8.00;99.90;;;;;;5038740;28;20050;-59
2023/04/28 01:21:52;;;;;;;20.70;10.75;;;8.00;99.90;;;;;;5039504;28;20049;-57
2023/04/28 01:24:23;;;;;;;16.43;9.70;;;8.00;99.90;;;;;;5026918;28;20049;-58
2023/04/28 01:26:54;;;;;;;20.30;10.45;;;8.00;99.90;;;;;;5023737;28;20641;-58
2023/04/28 01:29:22;;;;;;;18.63;10.85;;;8.10;99.90;;;;;;5036805;28;20052;-59
2023/04/28 01:31:53;;;;;;;17.50;9.97;;;8.00;99.90;;;;;;5016913;28;20447;-57
2023/04/28 01:34:23;;;;;;;;;;;8.00;99.90;;;;;;5031258;28;20291;-57
2023/04/28 01:36:51;;;;;;;17.35;9.50;;;8.10;99.90;;;;;;5048007;28;19921;-59
2023/04/28 01:39:19;;;;;;;18.92;10.23;;;8.00;99.90;;;;;;5024619;28;20045;-58
2023/04/28 01:41:46;;;;;;;18.55;9.85;;;8.10;99.90;;;;;;5021949;28;20045;-57
2023/04/28 01:44:14;;;;;;;17.90;9.90;;;8.10;99.90;;;;;;5045593;28;20045;-58
2023/04/28 01:46:42;;;;;;;17.10;9.82;;;8.10;99.90;;;;;;5032289;28;20045;-58
2023/04/28 01:49:10;;;;;;;16.63;9.50;;;8.10;99.90;;;;;;5051949;28;20405;-58
2023/04/28 01:51:39;;;;;;;16.98;9.27;;;8.10;99.90;;;;;;5047704;28;20049;-58
2023/04/28 01:54:07;;;;;;;16.40;8.45;;;8.20;99.90;;;;;;5035094;28;20033;-58
2023/04/28 01:56:35;;;;;;;14.48;7.68;;;8.10;99.90;;;;;;5051493;28;20068;-58
2023/04/28 01:59:03;;;;;;;13.63;8.18;;;8.20;99.90;;;;;;5026516;28;20401;-58
2023/04/28 02:01:32;;;;;;;12.55;7.20;;;8.20;99.90;;;;;;5026461;28;20041;-57
2023/04/28 02:04:00;;;;;;;11.05;7.20;;;8.20;99.90;;;;;;5035131;28;20049;-58
2023/04/28 02:06:31;;;;;;;12.35;7.22;;;8.20;99.90;;;;;;5018814;28;20049;-57
2023/04/28 02:08:59;;;;;;;12.82;7.20;;;8.20;99.90;;;;;;5035141;28;20045;-59
2023/04/28 02:11:26;;;;;;;11.57;6.88;;;8.10;99.90;;;;;;5054392;28;20045;-58
2023/04/28 02:13:56;;;;;;;10.57;6.75;;;8.20;99.90;;;;;;5032187;28;20040;-58
2023/04/28 02:16:24;;;;;;;10.95;7.05;;;8.20;99.90;;;;;;5053718;28;20057;-58
2023/04/28 02:18:54;;;;;;;12.07;6.45;;;8.10;99.90;;;;;;5059948;28;20385;-58
2023/04/28 02:21:26;;;;;;;11.82;7.05;;;8.10;99.90;;;;;;5049066;28;20041;-56
2023/04/28 02:23:54;;;;;;;11.07;6.55;;;8.10;99.90;;;;;;5024473;28;20041;-58
2023/04/28 02:26:23;;;;;;;10.77;6.67;;;8.10;99.90;;;;;;5045322;28;20400;-58
2023/04/28 02:28:51;;;;;;;11.88;6.75;;;8.10;99.90;;;;;;5047997;28;20049;-58
2023/04/28 02:31:19;;;;;;;11.15;6.97;;;8.10;99.90;;;;;;5038922;28;20049;-58
2023/04/28 02:33:46;;;;;;;10.80;6.90;;;8.10;99.90;;;;;;5052944;28;20472;-58
2023/04/28 02:36:14;;;;;;;12.13;6.50;;;8.10;99.90;;;;;;5052640;28;20515;-57
2023/04/28 02:38:42;;;;;;;12.95;7.20;;;8.10;99.90;;;;;;5034309;28;20041;-57
2023/04/28 02:41:10;;;;;;;11.60;7.20;;;8.10;99.90;;;;;;5041690;28;20223;-59
2023/04/28 02:43:38;;;;;;;11.75;6.90;;;8.10;99.90;;;;;;5026685;28;20059;-58
2023/04/28 02:46:06;;;;;;;12.05;6.55;;;8.10;99.90;;;;;;5031990;28;20382;-58
2023/04/28 02:48:36;;;;;;;10.70;6.55;;;8.10;99.90;;;;;;5013621;28;20056;-59
2023/04/28 02:51:03;;;;;;;11.35;5.70;;;8.10;99.90;;;;;;5051160;28;20049;-59
2023/04/28 02:53:32;;;;;;;12.60;6.65;;;8.10;99.90;;;;;;5031215;28;20064;-60
2023/04/28 02:56:03;;;;;;;12.50;7.00;;;8.20;99.90;;;;;;5033750;28;20049;-59
2023/04/28 02:58:32;;;;;;;11.32;6.30;;;8.10;99.90;;;;;;5026578;28;20485;-58
2023/04/28 03:01:00;;;;;;;13.50;7.45;;;8.10;99.90;;;;;;5034080;28;20033;-58
2023/04/28 03:03:28;;;;;;;11.98;6.82;;;8.10;99.90;;;;;;5051460;28;20037;-57
2023/04/28 03:05:55;;;;;;;13.88;6.72;;;8.10;99.90;;;;;;5051662;28;20489;-57
2023/04/28 03:08:23;;;;;;;13.07;6.90;;;8.10;99.90;;;;;;5047443;28;20045;-58
2023/04/28 03:10:53;;;;;;;11.38;5.97;;;8.10;99.90;;;;;;5030542;28;20579;-58
2023/04/28 03:13:20;;;;;;;11.38;6.45;;;8.10;99.90;;;;;;5032955;28;20052;-58
2023/04/28 03:15:49;;;;;;;12.77;6.70;;;8.10;99.90;;;;;;5032413;28;20051;-58
2023/04/28 03:18:21;;;;;;;13.13;6.07;;;8.10;99.90;;;;;;5018976;28;20037;-58
2023/04/28 03:20:49;;;;;;;11.55;6.18;;;8.10;99.90;;;;;;5030581;28;20048;-58
2023/04/28 03:23:17;;;;;;;12.00;6.45;;;8.10;99.90;;;;;;5046931;28;20473;-57
2023/04/28 03:25:45;;;;;;;10.73;6.38;;;8.10;99.90;;;;;;5029728;28;20420;-58
2023/04/28 03:28:12;;;;;;;13.15;6.15;;;8.10;99.90;;;;;;5038081;28;20041;-58
2023/04/28 03:30:40;;;;;;;13.30;7.20;;;8.10;99.90;;;;;;5025158;28;20048;-58
2023/04/28 03:33:07;;;;;;;11.95;6.95;;;8.10;99.90;;;;;;5048609;28;20045;-57
2023/04/28 03:35:35;;;;;;;11.88;6.35;;;8.10;99.90;;;;;;5033384;28;20044;-58
2023/04/28 03:38:03;;;;;;;14.10;6.97;;;8.20;99.90;;;;;;5044941;28;20054;-58
2023/04/28 03:40:31;;;;;;;13.18;6.72;;;8.20;99.90;;;;;;5032465;28;20063;-59
2023/04/28 03:43:11;;;;;;;13.50;7.13;;;8.20;99.90;;;;;;5048898;28;20052;-57
2023/04/28 03:46:03;;;;;;;12.30;6.93;;;8.20;99.90;;;;;;5028132;28;20060;-56
2023/04/28 03:48:31;;;;;;;13.15;7.30;;;8.20;99.90;;;;;;5023891;28;20200;-57
2023/04/28 03:50:59;;;;;;;13.85;7.22;;;8.20;99.90;;;;;;4994049;28;1195254;-57
2023/04/28 03:53:27;;;;;;;15.48;7.43;;;8.20;99.90;;;;;;5068750;28;20037;-58
2023/04/28 03:55:55;;;;;;;13.00;7.68;;;8.20;99.90;;;;;;5065747;28;20044;-57
2023/04/28 03:58:23;;;;;;;14.10;7.80;;;8.30;99.90;;;;;;5070120;28;20045;-57
2023/04/28 04:00:51;;;;;;;12.50;7.32;;;8.20;99.90;;;;;;5060784;28;20254;-57
2023/04/28 04:03:24;;;;;;;16.02;8.02;;;8.20;99.90;;;;;;5060071;28;20032;-57
2023/04/28 04:05:55;;;;;;;15.73;8.45;;;8.30;99.90;;;;;;5068641;28;20051;-57
2023/04/28 04:08:24;;;;;;;16.23;7.65;;;8.30;99.90;;;;;;5065157;28;20484;-58
2023/04/28 04:10:54;;;;;;;13.43;7.38;;;8.30;99.90;;;;;;5063382;28;20037;-63
2023/04/28 04:13:22;;;;;;;13.23;7.68;;;8.30;99.90;;;;;;5055652;28;20048;-57
2023/04/28 04:15:51;;;;;;;11.90;7.40;;;8.30;99.90;;;;;;5056659;28;20041;-57
2023/04/28 04:18:24;;;;;;;13.82;7.75;;;8.30;99.90;;;;;;5068987;28;20059;-59
2023/04/28 04:21:15;;;;;;;16.05;8.10;;;8.30;99.90;;;;;;5042071;28;20052;-56
2023/04/28 04:23:44;;;;;;;15.90;8.65;;;8.30;99.90;;;;;;5066544;28;20049;-57
2023/04/28 04:26:13;;;;;;;15.05;8.70;;;8.30;99.90;;;;;;5069768;28;20045;-56
2023/04/28 04:28:40;;;;;;;15.23;7.57;;;8.30;99.90;;;;;;5068325;28;20037;-57
2023/04/28 04:31:09;;;;;;;15.13;9.07;;;8.30;99.90;;;;;;5084386;28;20396;-57
2023/04/28 04:33:37;;;;;;;16.63;8.80;;;8.30;99.90;;;;;;5064878;28;20037;-57
2023/04/28 04:36:06;;;;;;;17.50;8.88;;;8.30;99.90;;;;;;5059592;28;20036;-57
2023/04/28 04:38:34;;;;;;;14.43;8.15;;;8.30;99.90;;;;;;5066194;28;20059;-56
2023/04/28 04:41:11;;;;;;;14.88;7.55;;;8.30;99.90;;;;;;5058010;28;20052;-57
2023/04/28 04:43:39;;;;;;;15.50;8.80;;;8.30;99.90;;;;;;5068101;28;20037;-56
2023/04/28 04:46:07;;;;;;;16.20;8.85;;;8.30;99.90;;;;;;5070326;28;20427;-57
2023/04/28 04:48:35;;;;;;;15.35;8.18;;;8.40;99.90;;;;;;5059067;28;20049;-57
2023/04/28 04:51:02;;;;;;;18.52;9.15;;;8.40;99.90;;;;;;5057367;28;20045;-57
2023/04/28 04:53:31;;;;;;;16.10;8.45;;;8.40;99.90;;;;;;5025539;28;20119;-58
2023/04/28 04:55:58;;;;;;;15.07;8.35;;;8.40;99.90;;;;;;5047184;28;20037;-59
2023/04/28 04:58:26;;;;;;;14.32;8.75;;;8.40;99.90;;;;;;5043467;28;20056;-57
2023/04/28 05:01:25;;;;;;;16.02;8.55;;;8.40;99.90;;;;;;5030227;28;20385;-57
2023/04/28 05:03:55;;;;;;;15.20;8.73;;;8.40;99.90;;;;;;5015140;28;20041;-56
2023/04/28 05:06:24;;;;;;;16.35;9.35;;;8.40;99.90;;;;;;5042049;28;20531;-57
2023/04/28 05:08:52;;;;;;;16.48;9.45;;;8.50;99.90;;;;;;5023725;28;20267;-58
2023/04/28 05:11:20;;;;;;;17.98;8.55;;;8.50;99.90;;;;;;5024759;28;20412;-58
2023/04/28 05:13:50;;;;;;;21.08;9.38;;;8.50;99.90;;;;;;5038962;28;20057;-58
2023/04/28 05:16:18;;;;;;;18.55;9.32;;;8.50;99.90;;;;;;5024116;28;20489;-57
2023/04/28 05:19:07;;;;;;;16.92;9.32;;;8.50;99.90;;;;;;5027452;28;20056;-57
2023/04/28 05:21:35;;;;;;;18.58;9.57;;;8.50;99.90;;;;;;5023096;28;20500;-58
2023/04/28 05:24:03;;;;;;;18.88;9.60;;;8.50;99.90;;;;;;5008965;28;20053;-58
2023/04/28 05:26:32;;;;;;;18.80;10.18;;;8.50;99.90;;;;;;5022761;28;20033;-57
2023/04/28 05:29:05;;;;;;;18.60;9.45;;;8.50;99.90;;;;;;5028277;28;20423;-58
2023/04/28 05:31:33;;;;;;;23.08;12.18;;;8.50;99.90;;;;;;5020860;28;20233;-57
2023/04/28 05:34:01;;;;;;;24.02;13.18;;;8.50;99.90;;;;;;5016728;28;20041;-56
2023/04/28 05:36:30;;;;;;;26.33;14.48;;;8.60;99.90;;;;;;5027864;28;20048;-57
2023/04/28 05:39:01;;;;;;;28.05;15.25;;;8.60;99.90;;;;;;5013039;28;20057;-57
2023/04/28 05:41:29;;;;;;;36.63;17.55;;;8.60;99.90;;;;;;5018464;28;20405;-57
2023/04/28 05:43:56;;;;;;;32.58;17.00;;;8.60;99.90;;;;;;5022273;28;20037;-58
2023/04/28 05:46:24;;;;;;;32.20;17.63;;;8.60;99.90;;;;;;5042605;28;20045;-57
2023/04/28 05:48:59;;;;;;;29.15;16.08;;;8.60;99.90;;;;;;5009390;28;20044;-57
2023/04/28 05:51:32;;;;;;;34.17;17.73;;;8.60;99.90;;;;;;5045151;28;20048;-56
2023/04/28 05:54:01;;;;;;;34.70;18.30;;;8.60;99.90;;;;;;5060995;28;20061;-58
2023/04/28 05:56:30;;;;;;;37.60;20.65;;;8.70;99.90;;;;;;5066422;28;20045;-59
2023/04/28 05:59:02;;;;;;;40.72;21.83;;;8.70;99.90;;;;;;5066163;28;20115;-57
2023/04/28 06:01:31;;;;;;;36.28;19.98;;;8.60;99.90;;;;;;5049017;28;20071;-58
2023/04/28 06:03:59;;;;;;;38.22;21.48;;;8.70;99.90;;;;;;5051824;28;20051;-58
2023/04/28 06:06:27;;;;;;;41.55;20.85;;;8.70;99.90;;;;;;5059687;28;20051;-57
2023/04/28 06:08:56;;;;;;;38.35;20.85;;;8.70;99.90;;;;;;5059154;28;20040;-57
2023/04/28 06:11:25;;;;;;;42.95;22.45;;;8.70;99.90;;;;;;5060341;28;20033;-57
2023/04/28 06:13:53;;;;;;;42.90;23.75;;;;;;;;;;5059351;28;20060;-57
2023/04/28 06:16:22;;;;;;;40.85;22.00;;;8.70;99.90;;;;;;5043587;28;20377;-58
2023/04/28 06:18:50;;;;;;;38.05;20.23;;;8.80;99.90;;;;;;5034485;28;20048;-58
2023/04/28 06:21:20;;;;;;;29.73;16.15;;;8.90;99.90;;;;;;5058667;28;20041;-57
2023/04/28 06:23:48;;;;;;;29.85;15.32;;;8.90;99.90;;;;;;5047706;28;20049;-57
2023/04/28 06:26:16;;;;;;;25.33;14.10;;;8.90;99.90;;;;;;5042945;28;20496;-57
2023/04/28 06:28:45;;;;;;;25.55;12.88;;;9.00;99.90;;;;;;5061706;28;20499;-58
2023/04/28 06:31:13;;;;;;;24.27;13.63;;;9.00;99.90;;;;;;5058882;28;20119;-58
2023/04/28 06:33:40;;;;;;;22.20;12.32;;;9.00;99.90;;;;;;5060853;28;20071;-56
2023/04/28 06:36:08;;;;;;;23.10;11.68;;;9.10;99.90;;;;;;5056822;28;20041;-58
2023/04/28 06:38:36;;;;;;;23.02;12.32;;;9.10;99.90;;;;;;5057408;28;20052;-56
2023/04/28 06:41:04;;;;;;;25.10;12.65;;;9.10;99.90;;;;;;5055086;28;20049;-57
2023/04/28 06:43:33;;;;;;;22.70;11.80;;;9.10;99.90;;;;;;5061225;28;20044;-56
2023/04/28 06:46:09;;;;;;;24.17;12.50;;;9.10;99.90;;;;;;5059635;28;20051;-56
2023/04/28 06:48:37;;;;;;;25.20;13.13;;;9.20;99.90;;;;;;5056765;28;20045;-57
2023/04/28 06:51:05;;;;;;;33.95;13.85;;;9.20;99.90;;;;;;5050527;28;20045;-59
2023/04/28 06:53:36;;;;;;;25.08;12.93;;;9.20;99.90;;;;;;5044757;28;20053;-58
2023/04/28 06:56:07;;;;;;;32.90;15.35;;;9.30;99.90;;;;;;5028992;28;20044;-57
2023/04/28 06:58:37;;;;;;;31.58;15.45;;;9.30;99.90;;;;;;5022558;28;20040;-57
2023/04/28 07:01:05;;;;;;;32.47;16.40;;;9.40;99.90;;;;;;5026949;28;20049;-57
2023/04/28 07:03:33;;;;;;;35.83;18.25;;;9.40;99.90;;;;;;5027211;28;20520;-57
2023/04/28 07:06:02;;;;;;;36.90;17.55;;;9.40;99.90;;;;;;5036288;28;20040;-58
2023/04/28 07:08:30;;;;;;;36.42;17.25;;;9.40;99.90;;;;;;5048891;28;20048;-57
2023/04/28 07:10:57;;;;;;;36.40;17.25;;;9.50;99.90;;;;;;5036732;28;20831;-59
2023/04/28 07:13:25;;;;;;;37.13;17.17;;;9.50;99.90;;;;;;5036277;28;20049;-58
2023/04/28 07:15:53;;;;;;;36.08;17.45;;;9.50;99.90;;;;;;5041913;28;20041;-59
2023/04/28 07:18:22;;;;;;;39.05;17.38;;;9.60;99.90;;;;;;5039946;28;20053;-59
2023/04/28 07:20:50;;;;;;;37.97;18.40;;;9.60;99.90;;;;;;5039384;28;20042;-58
2023/04/28 07:23:18;;;;;;;40.33;17.35;;;9.60;99.90;;;;;;5013088;28;20049;-57
2023/04/28 07:25:45;;;;;;;40.33;17.42;;;9.60;99.90;;;;;;5045832;28;20044;-58
2023/04/28 07:28:13;;;;;;;35.92;16.05;;;9.60;99.90;;;;;;5044964;28;20037;-58
2023/04/28 07:30:40;;;;;;;32.83;15.68;;;9.70;99.90;;;;;;5040889;28;20049;-58
2023/04/28 07:33:08;;;;;;;37.70;15.80;;;9.60;99.90;;;;;;5043970;28;20365;-58
2023/04/28 07:35:36;;;;;;;36.85;15.77;;;9.70;99.90;;;;;;5039605;28;20048;-58
2023/04/28 07:38:04;;;;;;;29.70;13.70;;;9.70;99.90;;;;;;5043998;28;20049;-58
2023/04/28 07:40:32;;;;;;;35.28;15.25;;;9.80;99.90;;;;;;5030439;28;20037;-57
2023/04/28 07:43:00;;;;;;;36.75;15.23;;;9.80;99.90;;;;;;5016647;28;20504;-57
2023/04/28 07:45:28;;;;;;;32.83;14.32;;;9.80;99.90;;;;;;5041617;28;20048;-58
2023/04/28 07:47:56;;;;;;;28.63;13.50;;;9.80;99.90;;;;;;5040331;28;20717;-57
2023/04/28 07:50:24;;;;;;;25.88;12.20;;;9.80;99.90;;;;;;5043358;28;21421;-57
2023/04/28 07:52:52;;;;;;;28.40;12.82;;;9.90;99.90;;;;;;5039975;28;20037;-59
2023/04/28 07:55:20;;;;;;;27.00;12.43;;;9.90;99.90;;;;;;5044346;28;20040;-58
2023/04/28 07:57:48;;;;;;;30.70;13.35;;;9.90;99.90;;;;;;5040451;28;20305;-58
2023/04/28 08:00:17;;;;;;;26.73;12.90;;;9.90;99.90;;;;;;5045553;28;20049;-58
2023/04/28 08:02:45;;;;;;;29.23;13.55;;;9.90;99.90;;;;;;5048295;28;20060;-57
2023/04/28 08:05:12;;;;;;;29.83;11.50;;;9.90;99.90;;;;;;5043034;28;20048;-59
2023/04/28 08:07:41;;;;;;;27.75;14.10;;;10.00;99.90;;;;;;5047367;28;20512;-58
2023/04/28 08:10:11;;;;;;;29.20;14.18;;;10.00;99.90;;;;;;5026862;28;20328;-58
2023/04/28 08:12:40;;;;;;;28.95;12.43;;;10.00;99.90;;;;;;5024113;28;20060;-59
2023/04/28 08:15:08;;;;;;;27.60;13.57;;;10.00;99.90;;;;;;5015817;28;20413;-56
2023/04/28 08:17:40;;;;;;;28.40;12.48;;;10.00;99.90;;;;;;5041899;28;20051;-59
2023/04/28 08:20:08;;;;;;;28.95;13.45;;;10.00;99.90;;;;;;5026632;28;20044;-58
2023/04/28 08:22:35;;;;;;;32.67;13.10;;;10.00;99.90;;;;;;5048971;28;20056;-57
2023/04/28 08:25:03;;;;;;;37.30;17.00;;;10.00;99.90;;;;;;5039310;28;20049;-58
2023/04/28 08:27:32;;;;;;;36.00;16.95;;;10.00;99.90;;;;;;5040331;28;20417;-59
2023/04/28 08:30:00;;;;;;;34.40;18.20;;;10.10;99.90;;;;;;5041218;28;20049;-58
2023/04/28 08:32:28;;;;;;;36.97;17.77;;;10.10;99.90;;;;;;5044824;28;20076;-57
2023/04/28 08:34:55;;;;;;;32.78;14.93;;;10.20;99.90;;;;;;5041136;28;20056;-58
2023/04/28 08:37:23;;;;;;;34.28;14.90;;;10.10;99.90;;;;;;5047618;28;20614;-57
2023/04/28 08:39:58;;;;;;;72.47;35.08;;;10.20;99.90;;;;;;5040948;28;20048;-58
2023/04/28 08:42:29;;;;;;;48.80;23.75;;;10.20;99.90;;;;;;5031775;28;20516;-58
2023/04/28 08:45:00;;;;;;;38.33;17.90;;;10.30;99.90;;;;;;5042061;28;20124;-57
2023/04/28 08:47:40;;;;;;;48.83;21.98;;;10.30;99.90;;;;;;5022715;28;20049;-57
2023/04/28 08:50:08;;;;;;;41.65;18.55;;;10.30;99.90;;;;;;5043989;28;20480;-59
2023/04/28 08:52:35;;;;;;;43.25;17.60;;;10.40;99.90;;;;;;5047444;28;20382;-59
2023/04/28 08:55:08;;;;;;;46.17;19.08;;;10.50;99.90;;;;;;5041369;28;20059;-59
2023/04/28 08:57:43;;;;;;;42.30;17.63;;;10.50;99.90;;;;;;5033628;28;20049;-57
2023/04/28 09:00:11;;;;;;;44.63;19.83;;;10.50;99.90;;;;;;5041487;28;20045;-57
2023/04/28 09:02:41;;;;;;;46.33;19.20;;;10.50;99.90;;;;;;5035887;28;20048;-57
2023/04/28 09:05:10;;;;;;;49.45;19.95;;;10.60;99.90;;;;;;5019823;28;20036;-57
2023/04/28 09:07:39;;;;;;;68.30;24.15;;;10.50;99.90;;;;;;5023814;28;20057;-58
2023/04/28 09:10:23;;;;;;;54.08;21.92;;;10.60;99.90;;;;;;5040129;28;20485;-58
2023/04/28 09:12:53;;;;;;;57.63;21.65;;;10.60;99.90;;;;;;5037271;28;20041;-57
2023/04/28 09:15:39;;;;;;;54.28;21.20;;;10.60;99.90;;;;;;5040295;28;20619;-57
2023/04/28 09:18:07;;;;;;;52.92;21.90;;;10.70;99.90;;;;;;5042928;28;20769;-58
2023/04/28 09:20:36;;;;;;;68.65;27.77;;;10.60;99.90;;;;;;5041986;28;20057;-58
2023/04/28 09:23:32;;;;;;;64.28;25.90;;;10.60;99.90;;;;;;5030799;28;20041;-57
2023/04/28 09:26:05;;;;;;;62.25;26.60;;;10.70;99.90;;;;;;5037775;28;20045;-58
2023/04/28 09:28:35;;;;;;;65.57;25.45;;;10.70;99.90;;;;;;5038097;28;20505;-57
2023/04/28 09:31:03;;;;;;;66.18;22.73;;;10.70;99.90;;;;;;5014024;28;20057;-60
2023/04/28 09:33:31;;;;;;;55.60;22.08;;;10.90;99.90;;;;;;5036829;28;20053;-57
2023/04/28 09:35:59;;;;;;;57.85;22.40;;;10.90;99.90;;;;;;5016776;28;20060;-60
2023/04/28 09:38:26;;;;;;;58.25;23.00;;;10.90;99.90;;;;;;5044271;28;20076;-60
2023/04/28 09:40:57;;;;;;;53.65;21.65;;;11.00;99.90;;;;;;5042808;28;20048;-59
2023/04/28 09:43:28;;;;;;;49.13;20.67;;;11.20;99.90;;;;;;5024898;28;20244;-59
2023/04/28 09:45:59;;;;;;;47.80;19.75;;;11.20;99.90;;;;;;5044729;28;20049;-59
2023/04/28 09:48:28;;;;;;;46.55;21.33;;;11.30;99.90;;;;;;5043271;28;20048;-58
2023/04/28 09:50:58;;;;;;;42.05;18.90;;;11.40;99.90;;;;;;5050318;28;20063;-60
2023/04/28 09:53:26;;;;;;;42.10;18.30;;;11.50;99.90;;;;;;5059275;28;20047;-59
2023/04/28 09:55:57;;;;;;;46.60;21.00;;;11.50;99.90;;;;;;5057466;28;20036;-58
2023/04/28 09:58:28;;;;;;;41.40;18.35;;;11.60;99.90;;;;;;5055207;28;20049;-57
2023/04/28 10:00:58;;;;;;;39.85;17.98;;;11.50;99.90;;;;;;5064322;28;20060;-59
2023/04/28 10:03:30;;;;;;;46.00;18.85;;;11.60;99.90;;;;;;5062716;28;20049;-58
2023/04/28 10:05:58;;;;;;;46.03;19.85;;;11.60;99.90;;;;;;5056364;28;20512;-59
2023/04/28 10:08:26;;;;;;;44.33;18.67;;;11.50;99.90;;;;;;5067812;28;20480;-58
2023/04/28 10:10:55;;;;;;;39.90;17.95;;;11.50;99.90;;;;;;5067042;28;20890;-58
2023/04/28 10:13:23;;;;;;;42.95;19.05;;;11.50;99.90;;;;;;5049808;28;20048;-58
2023/04/28 10:15:56;;;;;;;46.58;19.70;;;11.50;99.90;;;;;;5047916;28;20780;-59
2023/04/28 10:18:25;;;;;;;44.10;19.50;;;11.50;99.90;;;;;;5064923;28;20048;-58
2023/04/28 10:20:59;;;;;;;38.05;19.48;;;11.50;99.90;;;;;;5064109;28;20048;-58
2023/04/28 10:24:04;;;;;;;43.15;19.05;;;11.60;99.90;;;;;;5058770;28;20041;-57
2023/04/28 10:27:07;;;;;;;41.85;20.33;;;11.60;99.90;;;;;;5062366;28;20725;-57
2023/04/28 10:29:36;;;;;;;38.40;18.20;;;11.70;99.90;;;;;;5062334;28;20640;-57
2023/04/28 10:32:17;;;;;;;39.67;19.70;;;11.70;99.90;;;;;;5066670;28;20044;-58
2023/04/28 10:34:45;;;;;;;44.60;20.10;;;11.70;99.90;;;;;;5057497;28;20053;-57
2023/04/28 10:37:14;;;;;;;39.67;19.77;;;11.90;99.90;;;;;;5062053;28;20040;-57
2023/04/28 10:40:20;;;;;;;36.05;18.40;;;12.10;99.90;;;;;;5048601;28;20049;-57
2023/04/28 10:42:57;;;;;;;42.40;18.88;;;12.10;99.90;;;;;;5054039;28;20064;-55
2023/04/28 10:45:54;;;;;;;40.22;19.05;;;12.20;99.90;;;;;;5062818;28;20478;-58
2023/04/28 10:48:36;;;;;;;40.83;20.63;;;12.20;99.90;;;;;;5066670;28;20037;-60
2023/04/28 10:51:08;;;;;;;;;;;12.30;99.90;;;;;;5052511;28;20061;-57
2023/04/28 10:53:45;;;;;;;44.35;20.60;;;12.40;99.90;;;;;;5021153;28;19924;-57
2023/04/28 10:56:18;;;;;;;43.13;20.23;;;12.40;99.90;;;;;;5042429;28;20040;-57
2023/04/28 10:58:47;;;;;;;42.72;19.50;;;12.50;99.90;;;;;;5041149;28;20052;-57
2023/04/28 11:01:24;;;;;;;43.10;21.30;;;12.60;99.90;;;;;;5042162;28;20607;-59
2023/04/28 11:04:02;;;;;;;39.85;20.77;;;12.90;99.90;;;;;;5019698;28;20052;-58
2023/04/28 11:06:33;;;;;;;36.70;16.58;;;12.90;99.90;;;;;;5044982;28;20056;-58
2023/04/28 11:09:11;;;;;;;40.08;19.65;;;13.00;99.90;;;;;;5043392;28;20083;-57
2023/04/28 11:12:02;;;;;;;41.70;20.90;;;13.40;99.90;;;;;;5035326;28;20048;-58
2023/04/28 11:14:35;;;;;;;38.58;19.65;;;13.50;99.90;;;;;;5038500;28;20488;-62
2023/04/28 11:17:11;;;;;;;37.60;20.00;;;13.50;99.90;;;;;;5042682;28;20496;-59
2023/04/28 11:19:41;;;;;;;42.60;20.60;;;13.50;99.90;;;;;;5036449;28;20044;-58
2023/04/28 11:22:17;;;;;;;36.33;18.63;;;13.50;99.90;;;;;;5040199;28;20477;-60
2023/04/28 11:24:57;;;;;;;36.90;19.38;;;13.50;99.90;;;;;;5041642;28;20045;-56
2023/04/28 11:27:26;;;;;;;41.67;20.30;;;13.50;99.90;;;;;;5042773;28;20041;-59
2023/04/28 11:29:54;;;;;;;36.65;19.88;;;13.40;99.90;;;;;;5048709;28;20060;-57
2023/04/28 11:32:30;;;;;;;41.33;21.50;;;13.30;99.90;;;;;;5049054;28;20048;-56
2023/04/28 11:34:58;;;;;;;41.33;21.60;;;13.20;99.90;;;;;;5046732;28;20084;-61
2023/04/28 11:37:26;;;;;;;34.55;19.45;;;13.00;99.90;;;;;;5049731;28;20048;-56
2023/04/28 11:39:54;;;;;;;39.10;19.58;;;12.90;99.90;;;;;;5048459;28;20057;-57
2023/04/28 11:42:24;;;;;;;39.83;19.55;;;12.80;99.90;;;;;;5045689;28;20201;-56
2023/04/28 11:44:53;;;;;;;38.85;19.63;;;12.70;99.90;;;;;;5029846;28;20408;-56
2023/04/28 11:47:33;;;;;;;40.53;20.73;;;12.60;99.90;;;;;;5040368;28;20041;-59
2023/04/28 11:50:01;;;;;;;43.53;21.90;;;12.50;99.90;;;;;;5029416;28;20045;-57
2023/04/28 11:52:30;;;;;;;53.80;25.55;;;12.40;99.90;;;;;;5048544;28;20061;-58
2023/04/28 11:55:00;;;;;;;45.25;24.63;;;12.40;99.90;;;;;;5044294;28;20053;-57
2023/04/28 11:57:28;;;;;;;47.28;26.38;;;12.50;99.90;;;;;;5032126;28;20678;-60
2023/04/28 12:00:13;;;;;;;39.40;21.60;;;12.70;99.90;;;;;;5046241;28;20060;-61
2023/04/28 12:02:41;;;;;;;39.35;21.45;;;12.90;99.90;;;;;;5045088;28;20037;-60
2023/04/28 12:05:10;;;;;;;42.22;25.35;;;13.10;99.90;;;;;;5042119;28;20052;-59
2023/04/28 12:07:43;;;;;;;40.13;22.55;;;13.10;99.90;;;;;;5045941;28;20056;-57
2023/04/28 12:10:14;;;;;;;38.60;22.42;;;13.10;99.90;;;;;;5027556;28;20512;-57
2023/04/28 12:12:42;;;;;;;43.58;24.33;;;12.80;99.90;;;;;;5024202;28;20045;-62
2023/04/28 12:15:20;;;;;;;39.72;23.02;;;12.80;99.90;;;;;;5040345;28;20409;-61
2023/04/28 12:17:49;;;;;;;39.45;23.58;;;12.80;99.90;;;;;;5029911;28;20056;-61
2023/04/28 12:20:34;;;;;;;39.92;21.90;;;12.90;99.90;;;;;;5043781;28;20111;-58
2023/04/28 12:23:01;;;;;;;35.35;18.52;;;12.90;99.90;;;;;;5043049;28;20056;-57
2023/04/28 12:25:29;;;;;;;39.33;22.30;;;13.00;99.90;;;;;;5008446;28;20068;-62
2023/04/28 12:28:01;;;;;;;40.58;23.48;;;13.00;99.90;;;;;;5016059;28;20056;-57
2023/04/28 12:30:32;;;;;;;41.88;24.63;;;13.10;99.90;;;;;;5043355;28;20400;-63
2023/04/28 12:33:00;;;;;;;45.60;24.50;;;13.40;99.90;;;;;;5043193;28;20060;-63
2023/04/28 12:35:28;;;;;;;39.35;23.90;;;13.70;99.90;;;;;;5025566;28;20401;-64
2023/04/28 12:37:57;;;;;;;47.97;28.08;;;13.70;99.90;;;;;;5036408;28;20056;-59
2023/04/28 12:40:25;;;;;;;40.50;25.75;;;13.90;99.90;;;;;;5037758;28;20049;-63
2023/04/28 12:42:53;;;;;;;36.75;23.95;;;14.30;99.90;;;;;;5037104;28;20049;-63
2023/04/28 12:45:21;;;;;;;49.67;25.05;;;14.60;99.90;;;;;;5034226;28;20490;-62
2023/04/28 12:47:49;;;;;;;36.75;21.42;;;14.70;99.90;;;;;;5036002;28;20053;-62
2023/04/28 12:50:17;;;;;;;30.33;19.05;;;15.00;99.90;;;;;;5042185;28;20495;-61
2023/04/28 12:52:44;;;;;;;26.73;17.67;;;15.50;99.90;;;;;;5041917;28;20056;-63
2023/04/28 12:55:12;;;;;;;29.20;17.92;;;15.80;99.90;;;;;;5027538;28;20055;-63